Startpagina
METAR-TAF:

METAR-TAF

Vliegvelden :

Schaffen

Diest, België

breedte: 51-00N, lengte: 005-04E, hoogte: 30 m

Actueel weer

Dit bericht is 27 minuten geleden gemaakt, om 21:55 UTC
Wind 7 kt uit het noorden
Temperatuur 15°C
Vochtigheid 72%
Druk 1024 hPa
Zicht 10 km of meer

METAR: EBDT 242155Z AUTO 35007KT 9999 SCT027/// BKN032/// OVC037/// 15/10 Q1024 BLU

Tijdstip: 00:22 (22:22 UTC)


TAF: ontbreekt

Waarnemingen en weersverwachtingen van meer dan 4000 vliegvelden (METAR en TAF).

De beschikbare stations zijn de gele en rode punten op de kaart.

Ga met uw muis naar het station om de naam te zien.

Klik dan om waarnemingen en weersverwachtingen te zien.

kaart wijzigen: klik op de groene knoppen met een zwart kruis om in te zoomen, op de groene knop met een streepje om uit te zoomen of op de groene pijlen voor aangrenzende kaarten.


METAR-TAF: